Wye River — WDE3583 — position and weather

sailwx.info

Track history (hours):
 
Tides and Currents Weather Stations Pressure Air Temp Water Temp Dewpoint Dewpoint Depression Visibility Wind Speed Wind Dir Waves Ship Positions

Wye River

Owner: Vane Line Bunkering, Inc., Philadelphia, PA. More information available from US FCC via Universal Licensing System and Coast Guard Vessel Documentation Center.

Last reported at 2018-Jun-04 00:06 UTC. Time now 2018-Jun-19 10:53 UTC.
Position N 40°47' W 074°00'.
Warning: this ship's position is 15 days out of date.

Length 30 m; draft 4.3 m.

Type: Tow > 200 m length. MMSI: 367341190.

Date/timePositionNaut miles runAvg speedWind from/ knotsBaromVisibWave heightAir tempDewpointWater temp
2018-Jun-04 00:06N 40°47' W 074°00'1 7.1
2018-Jun-04 00:00N 40°46' W 074°00'4 8.2
2018-Jun-03 23:31N 40°42' W 074°02'2 4.4
2018-Jun-03 23:00N 40°40' W 074°00'0 0.0
2018-Jun-03 22:30N 40°40' W 074°00'0 0.0
2018-Jun-03 21:58N 40°40' W 074°00'0 0.0
2018-Jun-03 21:28N 40°40' W 074°00'0 0.0
2018-Jun-03 20:58N 40°40' W 074°00'0 0.0
2018-Jun-03 20:29N 40°40' W 074°00'0 0.0
2018-Jun-03 19:59N 40°40' W 074°00'0 0.0
2018-Jun-03 19:29N 40°40' W 074°00'0 0.0
2018-Jun-03 18:59N 40°40' W 074°00'0 0.0
2018-Jun-03 18:30N 40°40' W 074°00'0 0.0
2018-Jun-03 18:00N 40°40' W 074°00'0 0.0
2018-Jun-03 17:30N 40°40' W 074°00'0 0.0
2018-Jun-03 16:58N 40°40' W 074°00'0 0.0
2018-Jun-03 16:28N 40°40' W 074°00'0 0.0
2018-Jun-03 15:58N 40°40' W 074°00'0 0.0
2018-Jun-03 15:29N 40°40' W 074°00'0 0.0
2018-Jun-03 14:59N 40°40' W 074°00'0 0.0
2018-Jun-03 14:29N 40°40' W 074°00'0 0.2
2018-Jun-03 14:00N 40°40' W 074°00'0 0.0
2018-Jun-03 13:30N 40°40' W 074°00'0 0.1
2018-Jun-03 12:58N 40°40' W 074°00'0 0.0
2018-Jun-03 12:28N 40°40' W 074°00'0 0.0
2018-Jun-03 11:58N 40°40' W 074°00'0 0.0
2018-Jun-03 11:29N 40°40' W 074°00'0 0.0
2018-Jun-03 10:59N 40°40' W 074°00'0 0.0
2018-Jun-03 10:29N 40°40' W 074°00'0 0.0
2018-Jun-03 10:00N 40°40' W 074°00'0 0.0
2018-Jun-03 09:30N 40°40' W 074°00'0 0.0
2018-Jun-03 08:59N 40°40' W 074°00'0 0.0
2018-Jun-03 08:30N 40°40' W 074°00'0 0.0
2018-Jun-03 08:00N 40°40' W 074°00'0 0.0
2018-Jun-03 07:30N 40°40' W 074°00'0 0.0
2018-Jun-03 06:58N 40°40' W 074°00'0 0.0
2018-Jun-03 06:28N 40°40' W 074°00'0 0.0
2018-Jun-03 05:58N 40°40' W 074°00'0 0.0
2018-Jun-03 05:29N 40°40' W 074°00'0 0.0
2018-Jun-03 05:00N 40°40' W 074°00'0 0.0
2018-Jun-03 04:30N 40°40' W 074°00'0 0.0
2018-Jun-03 04:00N 40°40' W 074°00'0 0.0
2018-Jun-03 03:30N 40°40' W 074°00'0 0.0
2018-Jun-03 03:00N 40°40' W 074°00'0 0.0
2018-Jun-03 02:30N 40°40' W 074°00'0 0.0
2018-Jun-03 02:00N 40°40' W 074°00'0 0.0
2018-Jun-03 01:30N 40°40' W 074°00'0 0.0
2018-Jun-03 01:00N 40°40' W 074°00'0 0.0
2018-Jun-03 00:30N 40°40' W 074°00'0 0.0
2018-Jun-03 00:00N 40°40' W 074°00'0 0.0
2018-Jun-02 23:30N 40°40' W 074°00'0 0.0
2018-Jun-02 23:00N 40°40' W 074°00'0 0.0
2018-Jun-02 22:30N 40°40' W 074°00'2 4.4
2018-Jun-02 22:00N 40°39' W 074°02'5 9.9
2018-Jun-02 21:30N 40°39' W 074°09'3 3.1
2018-Jun-02 20:37N 40°41' W 074°10'0 0.0
2018-Jun-02 20:30N 40°41' W 074°10'0 0.0
2018-Jun-02 19:59N 40°41' W 074°10'0 0.0
2018-Jun-02 19:30N 40°41' W 074°10'0 0.0
2018-Jun-02 19:00N 40°41' W 074°10'0 0.0
2018-Jun-02 18:30N 40°41' W 074°10'0 0.0
2018-Jun-02 17:59N 40°41' W 074°10'0 0.0
2018-Jun-02 17:30N 40°41' W 074°10'0 0.0
2018-Jun-02 17:00N 40°41' W 074°10'0 0.0
2018-Jun-02 16:30N 40°41' W 074°10'0 0.0
2018-Jun-02 16:00N 40°41' W 074°10'0 0.0
2018-Jun-02 15:30N 40°41' W 074°10'0 0.0
2018-Jun-02 15:00N 40°41' W 074°10'0 0.0
2018-Jun-02 14:26N 40°41' W 074°10'0 0.0
2018-Jun-02 13:58N 40°41' W 074°10'0 0.0
2018-Jun-02 13:28N 40°41' W 074°10'0 0.0
2018-Jun-02 13:00N 40°41' W 074°10'0 0.0
2018-Jun-02 12:29N 40°41' W 074°10'0 0.0
2018-Jun-02 12:00N 40°41' W 074°10'0 0.0
2018-Jun-02 11:28N 40°41' W 074°10'0 0.0
2018-Jun-02 10:58N 40°41' W 074°10'0 0.0
2018-Jun-02 10:22N 40°41' W 074°10'1 1.8
2018-Jun-02 09:58N 40°41' W 074°09'3 5.5
2018-Jun-02 09:30N 40°39' W 074°07'5 9.4
2018-Jun-02 09:00N 40°40' W 074°01'1 1.9
2018-Jun-02 08:31N 40°39' W 074°02'5 9.1
2018-Jun-02 07:59N 40°39' W 074°08'3 0.4
2018-Jun-01 23:50N 40°42' W 074°08'1 0.9
2018-Jun-01 22:38N 40°41' W 074°10'0 0.0
2018-Jun-01 22:27N 40°41' W 074°10'0 0.0
2018-Jun-01 21:48N 40°41' W 074°10'0 0.3
2018-Jun-01 21:30N 40°41' W 074°09'2 0.5
2018-Jun-01 18:16N 40°40' W 074°09'0 0.8
2018-Jun-01 17:58N 40°39' W 074°09'1 1.5
2018-Jun-01 17:29N 40°39' W 074°09'3 5.5
2018-Jun-01 17:00N 40°39' W 074°05'0 0.8
2018-Jun-01 16:28N 40°39' W 074°05'0 0.0
2018-Jun-01 15:59N 40°39' W 074°05'0 0.0
2018-Jun-01 15:26N 40°39' W 074°05'0 0.0
2018-Jun-01 14:56N 40°39' W 074°05'1 1.9
2018-Jun-01 14:30N 40°39' W 074°04'4 7.0
2018-Jun-01 13:59N 40°41' W 074°00'0 0.3
2018-Jun-01 13:30N 40°41' W 074°00'4 8.5
2018-Jun-01 13:00N 40°39' W 074°05'5 8.4
2018-Jun-01 12:27N 40°39' W 074°11'1 2.2
2018-Jun-01 12:00N 40°39' W 074°10'3 6.3
2018-Jun-01 11:30N 40°39' W 074°06'0 0.0
2018-Jun-01 10:43N 40°39' W 074°06'0 0.0
2018-Jun-01 10:25N 40°39' W 074°06'0 0.0
2018-Jun-01 09:58N 40°39' W 074°06'0 0.0
2018-Jun-01 09:26N 40°39' W 074°06'0 0.0
2018-Jun-01 08:59N 40°39' W 074°06'0 0.0
2018-Jun-01 08:26N 40°39' W 074°06'0 0.0
2018-Jun-01 08:00N 40°39' W 074°06'0 0.0
2018-Jun-01 07:30N 40°39' W 074°06'0 0.0
2018-Jun-01 03:09N 40°39' W 074°06'0 0.0
2018-Jun-01 02:59N 40°39' W 074°06'0 0.0
2018-Jun-01 02:30N 40°39' W 074°06'0 0.0
2018-Jun-01 01:37N 40°39' W 074°06'0 0.0
2018-Jun-01 01:13N 40°39' W 074°06'0 0.1
2018-Jun-01 01:00N 40°39' W 074°06'0 0.0
2018-Jun-01 00:28N 40°39' W 074°06'0 0.0
2018-May-31 23:56N 40°39' W 074°06'0 0.0
2018-May-31 23:29N 40°39' W 074°06'1 1.7
2018-May-31 23:00N 40°39' W 074°05'1 2.2
2018-May-31 22:30N 40°39' W 074°03'2 2.8
2018-May-31 21:58N 40°38' W 074°04'0 0.1
2018-May-31 21:28N 40°38' W 074°04'0 0.0
2018-May-31 20:58N 40°38' W 074°04'0 0.1
2018-May-31 20:29N 40°38' W 074°04'0 0.0
2018-May-31 19:59N 40°38' W 074°04'0 0.0
2018-May-31 19:29N 40°38' W 074°04'0 0.0
2018-May-31 19:00N 40°38' W 074°04'1 1.8
2018-May-31 18:30N 40°39' W 074°04'1 2.0
2018-May-31 17:59N 40°39' W 074°05'0 0.0
2018-May-31 17:29N 40°39' W 074°05'0 0.0
2018-May-31 17:00N 40°39' W 074°05'0 0.0
2018-May-31 16:30N 40°39' W 074°05'0 0.0
2018-May-31 16:00N 40°39' W 074°05'0 0.0
2018-May-31 15:31N 40°39' W 074°05'0 0.0
2018-May-31 14:58N 40°39' W 074°05'0 0.0
2018-May-31 14:28N 40°39' W 074°05'0 0.6
2018-May-31 14:00N 40°39' W 074°06'0 0.1
2018-May-31 12:13N 40°39' W 074°06'0 0.0
2018-May-31 11:07N 40°39' W 074°06'0 0.1
2018-May-31 11:00N 40°39' W 074°06'0 0.7
2018-May-31 10:30N 40°39' W 074°05'2 4.7
2018-May-31 10:00N 40°40' W 074°03'1 2.7
2018-May-31 09:30N 40°40' W 074°05'0 0.6
2018-May-31 09:00N 40°40' W 074°05'0 0.0
2018-May-31 08:27N 40°40' W 074°05'0 0.0
2018-May-31 08:00N 40°40' W 074°05'0 0.0
2018-May-31 07:25N 40°40' W 074°05'0 0.0
2018-May-31 06:58N 40°40' W 074°05'0 0.0
2018-May-31 06:28N 40°40' W 074°05'0 0.0
2018-May-31 05:59N 40°40' W 074°05'0 0.0
2018-May-31 05:29N 40°40' W 074°05'0 0.0
2018-May-31 04:59N 40°40' W 074°05'0 0.0
2018-May-31 04:28N 40°40' W 074°05'0 0.0
2018-May-31 03:59N 40°40' W 074°05'0 0.0
2018-May-31 03:29N 40°40' W 074°05'0 0.0
2018-May-31 02:59N 40°40' W 074°05'0 0.0
2018-May-31 02:29N 40°40' W 074°05'0 0.8
2018-May-31 02:00N 40°40' W 074°05'1 2.9
2018-May-31 01:30N 40°41' W 074°03'2 4.6
2018-May-31 01:00N 40°39' W 074°05'3 5.0
2018-May-31 00:28N 40°40' W 074°09'0 0.7
2018-May-31 00:00N 40°40' W 074°08'0 0.1
2018-May-30 23:30N 40°40' W 074°08'1 2.4
2018-May-30 23:00N 40°41' W 074°09'0 0.0
2018-May-30 22:28N 40°41' W 074°09'0 0.0
2018-May-30 21:51N 40°41' W 074°09'0 0.0
2018-May-30 21:30N 40°41' W 074°09'0 0.0
2018-May-30 21:00N 40°41' W 074°09'0 0.0
2018-May-30 20:30N 40°41' W 074°09'0 0.0
2018-May-30 19:58N 40°41' W 074°09'0 0.0
2018-May-30 19:30N 40°41' W 074°09'0 0.0
2018-May-30 18:58N 40°41' W 074°09'0 0.0
2018-May-30 18:18N 40°41' W 074°09'0 0.0
2018-May-30 17:59N 40°41' W 074°09'0 0.0
2018-May-30 17:30N 40°41' W 074°09'0 0.0
2018-May-30 17:00N 40°41' W 074°09'2 3.6
2018-May-30 16:30N 40°39' W 074°09'3 6.4
2018-May-30 16:00N 40°39' W 074°05'3 5.3
2018-May-30 15:30N 40°40' W 074°01'1 2.0
2018-May-30 15:00N 40°40' W 074°00'1 2.3
2018-May-30 14:30N 40°40' W 074°02'1 1.2
2018-May-30 14:01N 40°40' W 074°02'2 3.0
2018-May-30 13:30N 40°40' W 074°00'2 3.1
2018-May-30 13:01N 40°40' W 074°02'3 5.2
2018-May-30 12:30N 40°39' W 074°05'3 5.2
2018-May-30 12:00N 40°40' W 074°08'1 2.5
2018-May-30 11:27N 40°41' W 074°10'0 0.0
2018-May-30 11:00N 40°41' W 074°10'0 0.0
2018-May-30 10:29N 40°41' W 074°10'0 0.0
2018-May-30 09:04N 40°41' W 074°10'0 0.0
2018-May-30 08:49N 40°41' W 074°10'0 0.0
2018-May-30 07:15N 40°41' W 074°10'0 0.0
2018-May-30 04:53N 40°41' W 074°09'0 0.0
2018-May-30 04:30N 40°41' W 074°09'2 2.4
2018-May-30 03:50N 40°40' W 074°09'0 0.0
2018-May-30 03:30N 40°40' W 074°09'0 0.0
2018-May-30 03:00N 40°40' W 074°09'2 3.6
2018-May-30 02:30N 40°39' W 074°07'1 2.1
2018-May-30 02:01N 40°39' W 074°05'2 4.6
2018-May-30 01:29N 40°40' W 074°08'1 2.8
2018-May-30 00:59N 40°41' W 074°09'0 0.0
2018-May-30 00:30N 40°41' W 074°09'0 0.0
2018-May-29 23:58N 40°41' W 074°09'0 0.0
2018-May-29 23:30N 40°41' W 074°09'0 0.0
2018-May-29 23:00N 40°41' W 074°09'0 0.0
2018-May-29 22:30N 40°41' W 074°09'0 0.0
2018-May-29 21:59N 40°41' W 074°09'0 0.0
2018-May-29 21:28N 40°41' W 074°09'0 0.0
2018-May-29 21:00N 40°41' W 074°09'0 0.0
2018-May-29 20:29N 40°41' W 074°09'0 0.0
2018-May-29 20:00N 40°41' W 074°09'0 0.0
2018-May-29 19:30N 40°41' W 074°09'0 0.0
2018-May-29 19:00N 40°41' W 074°09'1 2.7
2018-May-29 18:30N 40°40' W 074°08'1 1.5
2018-May-29 18:00N 40°40' W 074°09'0 0.3
2018-May-29 17:30N 40°40' W 074°09'1 1.0
2018-May-29 17:00N 40°39' W 074°09'3 5.2
2018-May-29 16:28N 40°39' W 074°05'2 4.8
2018-May-29 16:00N 40°37' W 074°04'1 3.0
2018-May-29 15:30N 40°39' W 074°04'1 2.3
2018-May-29 15:00N 40°39' W 074°05'1 2.1
2018-May-29 14:30N 40°39' W 074°04'1 2.1
2018-May-29 14:00N 40°40' W 074°05'0 0.0
2018-May-29 13:27N 40°40' W 074°05'0 0.0
2018-May-29 12:58N 40°40' W 074°05'0 0.0
2018-May-29 12:28N 40°40' W 074°05'0 0.0
2018-May-29 11:58N 40°40' W 074°05'0 0.0
2018-May-29 11:28N 40°40' W 074°05'0 0.0
2018-May-29 10:59N 40°40' W 074°05'0 0.0
2018-May-29 10:29N 40°40' W 074°05'0 0.0
2018-May-29 09:59N 40°40' W 074°05'0 0.0
2018-May-29 09:30N 40°40' W 074°05'0 0.0
2018-May-29 09:00N 40°40' W 074°05'0 0.0
2018-May-29 08:30N 40°40' W 074°05'0 0.0
2018-May-29 07:58N 40°40' W 074°05'0 0.0
2018-May-29 07:28N 40°40' W 074°05'0 0.0
2018-May-29 06:58N 40°40' W 074°05'0 0.0
2018-May-29 06:29N 40°40' W 074°05'0 0.0
2018-May-29 05:56N 40°40' W 074°05'0 0.0
2018-May-29 05:29N 40°40' W 074°05'0 0.1
2018-May-29 05:00N 40°40' W 074°05'2 3.2
2018-May-29 04:30N 40°40' W 074°03'1 1.1
2018-May-29 04:00N 40°40' W 074°03'0 0.3
2018-May-29 03:30N 40°40' W 074°03'1 2.5
2018-May-29 03:00N 40°40' W 074°05'0 0.6
2018-May-29 02:28N 40°40' W 074°05'0 0.0
2018-May-29 01:56N 40°40' W 074°05'0 0.0
2018-May-29 01:29N 40°40' W 074°05'0 0.0
2018-May-29 00:59N 40°40' W 074°05'0 0.0
2018-May-29 00:27N 40°40' W 074°05'0 0.0
2018-May-28 23:57N 40°40' W 074°05'0 0.0
2018-May-28 23:30N 40°40' W 074°05'0 0.0
2018-May-28 22:58N 40°40' W 074°05'0 0.0
2018-May-28 22:28N 40°40' W 074°05'0 0.0
2018-May-28 21:58N 40°40' W 074°05'0 0.0
2018-May-28 21:29N 40°40' W 074°05'0 0.0
2018-May-28 20:59N 40°40' W 074°05'0 0.0
2018-May-28 20:29N 40°40' W 074°05'0 0.0
2018-May-28 20:00N 40°40' W 074°05'0 0.0
2018-May-28 19:30N 40°40' W 074°05'2 4.7
2018-May-28 19:01N 40°40' W 074°02'0 0.4
2018-May-28 18:30N 40°40' W 074°02'1 1.1
2018-May-28 18:01N 40°39' W 074°02'2 3.7
2018-May-28 17:30N 40°40' W 074°00'1 1.7
2018-May-28 17:00N 40°40' W 074°01'3 5.4
2018-May-28 16:29N 40°40' W 074°05'0 0.5
2018-May-28 16:00N 40°40' W 074°04'0 0.4
2018-May-28 15:28N 40°40' W 074°04'1 3.1
2018-May-28 15:00N 40°39' W 074°03'2 3.7
2018-May-28 14:27N 40°40' W 074°00'0 0.0
2018-May-28 14:00N 40°40' W 074°00'0 0.0
2018-May-28 13:28N 40°40' W 074°00'0 0.0
2018-May-28 12:58N 40°40' W 074°00'0 0.0
2018-May-28 12:28N 40°40' W 074°00'0 0.0
2018-May-28 11:59N 40°40' W 074°00'0 0.0
2018-May-28 11:29N 40°40' W 074°00'0 0.0
2018-May-28 10:59N 40°40' W 074°00'0 0.0
2018-May-28 10:30N 40°40' W 074°00'0 0.0
2018-May-28 10:00N 40°40' W 074°00'0 0.0
2018-May-28 09:30N 40°40' W 074°00'0 0.0
2018-May-28 08:58N 40°40' W 074°00'0 0.0
2018-May-28 08:28N 40°40' W 074°00'0 0.0
2018-May-28 07:58N 40°40' W 074°00'0 0.0
2018-May-28 07:26N 40°40' W 074°00'0 0.0
2018-May-28 06:59N 40°40' W 074°00'0 0.0
2018-May-28 06:29N 40°40' W 074°00'0 0.0
2018-May-28 06:00N 40°40' W 074°00'2 4.3
2018-May-28 05:30N 40°39' W 074°03'2 3.9
2018-May-28 05:00N 40°39' W 074°05'0 0.0
2018-May-28 04:30N 40°39' W 074°05'1 1.7
2018-May-28 04:00N 40°39' W 074°04'3 6.6
2018-May-28 03:30N 40°40' W 074°00'0 0.0
2018-May-28 03:00N 40°40' W 074°00'0 0.0
2018-May-28 02:28N 40°40' W 074°00'1 1.3
2018-May-28 02:00N 40°40' W 074°01'0 0.4
2018-May-28 01:28N 40°40' W 074°01'0 0.0
2018-May-28 00:59N 40°40' W 074°01'0 0.0
2018-May-28 00:29N 40°40' W 074°01'0 0.0
2018-May-27 23:59N 40°40' W 074°01'3 6.3
2018-May-27 23:28N 40°39' W 074°05'0 0.3
2018-May-27 22:58N 40°39' W 074°05'0 0.8
2018-May-27 22:30N 40°39' W 074°05'2 3.5
2018-May-27 22:01N 40°39' W 074°03'2 4.4
2018-May-27 21:28N 40°40' W 074°00'0 0.0
2018-May-27 20:59N 40°40' W 074°00'0 0.0
2018-May-27 20:29N 40°40' W 074°00'0 0.0
2018-May-27 19:56N 40°40' W 074°00'0 0.0
2018-May-27 19:18N 40°40' W 074°00'0 0.0
2018-May-27 19:00N 40°40' W 074°00'0 0.0
2018-May-27 18:30N 40°40' W 074°00'0 0.0
2018-May-27 17:58N 40°40' W 074°00'0 0.0
2018-May-27 17:28N 40°40' W 074°00'0 0.0
2018-May-27 16:58N 40°40' W 074°00'0 0.0
2018-May-27 16:20N 40°40' W 074°00'0 0.0
2018-May-27 15:59N 40°40' W 074°00'0 0.0
2018-May-27 15:29N 40°40' W 074°00'0 0.0
2018-May-27 15:00N 40°40' W 074°00'0 0.0
2018-May-27 14:30N 40°40' W 074°00'0 0.0
2018-May-27 14:00N 40°40' W 074°00'0 0.0
2018-May-27 13:28N 40°40' W 074°00'0 0.0
2018-May-27 12:58N 40°40' W 074°00'0 0.0
2018-May-27 12:28N 40°40' W 074°00'0 0.0
2018-May-27 11:59N 40°40' W 074°00'0 0.0
2018-May-27 11:29N 40°40' W 074°00'0 0.0
2018-May-27 10:59N 40°40' W 074°00'0 0.0
2018-May-27 10:29N 40°40' W 074°00'0 0.0
2018-May-27 10:00N 40°40' W 074°00'0 0.0
2018-May-27 09:30N 40°40' W 074°00'0 0.0
2018-May-27 09:00N 40°40' W 074°00'0 0.0
2018-May-27 08:28N 40°40' W 074°00'0 0.0
2018-May-27 08:00N 40°40' W 074°00'3 5.7
2018-May-27 07:30N 40°39' W 074°04'2 1.9
2018-May-27 06:41N 40°39' W 074°06'2 9.0
2018-May-27 06:30N 40°40' W 074°04'1 2.0
2018-May-27 06:00N 40°40' W 074°05'0 0.0
2018-May-27 05:30N 40°40' W 074°05'0 0.0
2018-May-27 05:00N 40°40' W 074°05'0 0.0
2018-May-27 04:30N 40°40' W 074°05'0 0.0
2018-May-27 04:00N 40°40' W 074°05'0 0.0
2018-May-27 03:30N 40°40' W 074°05'0 0.0
2018-May-27 03:00N 40°40' W 074°05'0 0.0
2018-May-27 02:30N 40°40' W 074°05'0 0.0
2018-May-27 02:00N 40°40' W 074°05'0 0.0
2018-May-27 01:30N 40°40' W 074°05'1 2.1
2018-May-27 01:00N 40°39' W 074°04'1 2.8
2018-May-27 00:29N 40°39' W 074°06'0 0.0
2018-May-27 00:00N 40°39' W 074°06'4 7.1
2018-May-26 23:30N 40°39' W 074°01'1 1.6
2018-May-26 22:59N 40°40' W 074°01'0 0.0
2018-May-26 22:29N 40°40' W 074°01'0 0.0
2018-May-26 21:56N 40°40' W 074°01'0 0.0
2018-May-26 21:30N 40°40' W 074°01'0 0.0
2018-May-26 21:00N 40°40' W 074°01'0 0.0
2018-May-26 20:30N 40°40' W 074°01'0 0.0
2018-May-26 20:00N 40°40' W 074°01'0 0.2
2018-May-26 19:30N 40°40' W 074°00'0 0.2
2018-May-26 18:59N 40°40' W 074°00'0 0.0
2018-May-26 18:29N 40°40' W 074°00'0 0.0
2018-May-26 18:00N 40°40' W 074°00'0 0.0
2018-May-26 17:30N 40°40' W 074°00'2 3.4
2018-May-26 17:01N 40°39' W 074°02'2 3.5
2018-May-26 16:26N 40°40' W 074°04'0 0.0
2018-May-26 15:57N 40°40' W 074°04'0 0.0
2018-May-26 15:27N 40°40' W 074°04'0 0.0
2018-May-26 15:00N 40°40' W 074°04'0 0.0
2018-May-26 14:28N 40°40' W 074°04'0 0.0
2018-May-26 13:58N 40°40' W 074°04'0 0.0
2018-May-26 13:28N 40°40' W 074°04'0 0.0
2018-May-26 12:59N 40°40' W 074°04'0 0.0
2018-May-26 12:29N 40°40' W 074°04'0 0.0
2018-May-26 11:59N 40°40' W 074°04'0 0.2
2018-May-26 11:30N 40°40' W 074°04'0 0.0
2018-May-26 10:58N 40°40' W 074°04'0 0.0
2018-May-26 10:28N 40°40' W 074°04'0 0.0
2018-May-26 09:56N 40°40' W 074°04'0 0.0
2018-May-26 09:29N 40°40' W 074°04'0 0.0
2018-May-26 08:59N 40°40' W 074°04'0 0.0
2018-May-26 08:18N 40°40' W 074°04'0 0.0
2018-May-26 08:00N 40°40' W 074°04'0 0.0
2018-May-26 07:30N 40°40' W 074°04'0 0.1
2018-May-26 07:00N 40°40' W 074°04'2 4.4
2018-May-26 06:30N 40°39' W 074°07'0 0.1
2018-May-26 05:30N 40°39' W 074°07'1 2.4
2018-May-26 05:00N 40°39' W 074°05'4 7.2
2018-May-26 04:30N 40°40' W 074°01'0 0.1
2018-May-26 04:00N 40°40' W 074°01'0 0.0
2018-May-26 03:30N 40°40' W 074°01'0 0.0
2018-May-26 02:58N 40°40' W 074°01'0 0.0
2018-May-26 02:25N 40°40' W 074°01'0 0.0
2018-May-26 01:58N 40°40' W 074°01'0 0.0
2018-May-26 01:29N 40°40' W 074°01'0 0.0
2018-May-26 00:59N 40°40' W 074°01'0 0.0
2018-May-26 00:30N 40°40' W 074°01'3 5.4
2018-May-26 00:00N 40°39' W 074°04'4 7.3
2018-May-25 23:28N 40°39' W 074°09'2 3.0
2018-May-25 22:51N 40°41' W 074°09'0 0.1
2018-May-25 22:30N 40°41' W 074°09'0 0.2
2018-May-25 21:02N 40°41' W 074°09'0 0.4
2018-May-25 20:56N 40°41' W 074°09'3 6.6
2018-May-25 20:31N 40°39' W 074°08'4 7.6
2018-May-25 20:01N 40°39' W 074°03'3 5.2
2018-May-25 19:28N 40°40' W 074°00'0 0.0
2018-May-25 18:59N 40°40' W 074°00'0 0.0
2018-May-25 18:29N 40°40' W 074°00'0 0.0
2018-May-25 17:59N 40°40' W 074°00'0 0.0
2018-May-25 17:30N 40°40' W 074°00'0 0.0
2018-May-25 17:00N 40°40' W 074°00'0 0.8
2018-May-25 16:30N 40°40' W 074°01'3 6.9
2018-May-25 16:00N 40°39' W 074°05'0 0.1
2018-May-25 15:30N 40°39' W 074°05'3 6.0
2018-May-25 15:00N 40°38' W 074°09'3 1.3
2018-May-25 12:18N 40°42' W 074°09'1 2.2
2018-May-25 12:00N 40°41' W 074°08'1 2.8
2018-May-25 11:30N 40°40' W 074°08'0 0.0
2018-May-25 11:00N 40°40' W 074°08'2 3.2
2018-May-25 10:28N 40°39' W 074°07'0 1.0
2018-May-25 10:00N 40°39' W 074°07'2 3.6
2018-May-25 09:28N 40°40' W 074°05'0 0.0
2018-May-25 08:59N 40°40' W 074°05'0 0.0
2018-May-25 08:29N 40°40' W 074°05'0 0.0
2018-May-25 07:59N 40°40' W 074°05'0 0.0
2018-May-25 07:29N 40°40' W 074°05'0 0.0
2018-May-25 07:00N 40°40' W 074°05'0 0.0
2018-May-25 06:27N 40°40' W 074°05'0 0.0
2018-May-25 06:00N 40°40' W 074°05'0 0.0
2018-May-25 05:28N 40°40' W 074°05'0 0.0
2018-May-25 04:58N 40°40' W 074°05'0 0.0
2018-May-25 04:28N 40°40' W 074°05'0 0.0
2018-May-25 03:59N 40°40' W 074°05'1 2.0
2018-May-25 03:30N 40°40' W 074°04'2 4.2
2018-May-25 02:59N 40°39' W 074°07'0 0.3
2018-May-25 02:30N 40°39' W 074°07'1 2.2
2018-May-25 02:00N 40°39' W 074°05'1 1.0
2018-May-25 01:16N 40°39' W 074°06'0 0.0
2018-May-25 01:00N 40°39' W 074°06'0 0.8
2018-May-25 00:30N 40°39' W 074°05'  
Track history (hours):
 
Tides and Currents Weather Stations Pressure Air Temp Water Temp Dewpoint Dewpoint Depression Visibility Wind Speed Wind Dir Waves Ship Positions

Wye River

Owner: Vane Line Bunkering, Inc., Philadelphia, PA. More information available from US FCC via Universal Licensing System and Coast Guard Vessel Documentation Center.

Last reported at 2018-Jun-04 00:06 UTC. Time now 2018-Jun-19 10:53 UTC.
Position N 40°47' W 074°00'.
Warning: this ship's position is 15 days out of date.

Length 30 m; draft 4.3 m.

Type: Tow > 200 m length. MMSI: 367341190.

Date/timePositionNaut miles runAvg speedWind from/ knotsBaromVisibWave heightAir tempDewpointWater temp
2018-Jun-04 00:06N 40°47' W 074°00'1 7.1
2018-Jun-04 00:00N 40°46' W 074°00'4 8.2
2018-Jun-03 23:31N 40°42' W 074°02'2 4.4
2018-Jun-03 23:00N 40°40' W 074°00'0 0.0
2018-Jun-03 22:30N 40°40' W 074°00'0 0.0
2018-Jun-03 21:58N 40°40' W 074°00'0 0.0
2018-Jun-03 21:28N 40°40' W 074°00'0 0.0
2018-Jun-03 20:58N 40°40' W 074°00'0 0.0
2018-Jun-03 20:29N 40°40' W 074°00'0 0.0
2018-Jun-03 19:59N 40°40' W 074°00'0 0.0
2018-Jun-03 19:29N 40°40' W 074°00'0 0.0
2018-Jun-03 18:59N 40°40' W 074°00'0 0.0
2018-Jun-03 18:30N 40°40' W 074°00'0 0.0
2018-Jun-03 18:00N 40°40' W 074°00'0 0.0
2018-Jun-03 17:30N 40°40' W 074°00'0 0.0
2018-Jun-03 16:58N 40°40' W 074°00'0 0.0
2018-Jun-03 16:28N 40°40' W 074°00'0 0.0
2018-Jun-03 15:58N 40°40' W 074°00'0 0.0
2018-Jun-03 15:29N 40°40' W 074°00'0 0.0
2018-Jun-03 14:59N 40°40' W 074°00'0 0.0
2018-Jun-03 14:29N 40°40' W 074°00'0 0.2
2018-Jun-03 14:00N 40°40' W 074°00'0 0.0
2018-Jun-03 13:30N 40°40' W 074°00'0 0.1
2018-Jun-03 12:58N 40°40' W 074°00'0 0.0
2018-Jun-03 12:28N 40°40' W 074°00'0 0.0
2018-Jun-03 11:58N 40°40' W 074°00'0 0.0
2018-Jun-03 11:29N 40°40' W 074°00'0 0.0
2018-Jun-03 10:59N 40°40' W 074°00'0 0.0
2018-Jun-03 10:29N 40°40' W 074°00'0 0.0
2018-Jun-03 10:00N 40°40' W 074°00'0 0.0
2018-Jun-03 09:30N 40°40' W 074°00'0 0.0
2018-Jun-03 08:59N 40°40' W 074°00'0 0.0
2018-Jun-03 08:30N 40°40' W 074°00'0 0.0
2018-Jun-03 08:00N 40°40' W 074°00'0 0.0
2018-Jun-03 07:30N 40°40' W 074°00'0 0.0
2018-Jun-03 06:58N 40°40' W 074°00'0 0.0
2018-Jun-03 06:28N 40°40' W 074°00'0 0.0
2018-Jun-03 05:58N 40°40' W 074°00'0 0.0
2018-Jun-03 05:29N 40°40' W 074°00'0 0.0
2018-Jun-03 05:00N 40°40' W 074°00'0 0.0
2018-Jun-03 04:30N 40°40' W 074°00'0 0.0
2018-Jun-03 04:00N 40°40' W 074°00'0 0.0
2018-Jun-03 03:30N 40°40' W 074°00'0 0.0
2018-Jun-03 03:00N 40°40' W 074°00'0 0.0
2018-Jun-03 02:30N 40°40' W 074°00'0 0.0
2018-Jun-03 02:00N 40°40' W 074°00'0 0.0
2018-Jun-03 01:30N 40°40' W 074°00'0 0.0
2018-Jun-03 01:00N 40°40' W 074°00'0 0.0
2018-Jun-03 00:30N 40°40' W 074°00'0 0.0
2018-Jun-03 00:00N 40°40' W 074°00'0 0.0
2018-Jun-02 23:30N 40°40' W 074°00'0 0.0
2018-Jun-02 23:00N 40°40' W 074°00'0 0.0
2018-Jun-02 22:30N 40°40' W 074°00'2 4.4
2018-Jun-02 22:00N 40°39' W 074°02'5 9.9
2018-Jun-02 21:30N 40°39' W 074°09'3 3.1
2018-Jun-02 20:37N 40°41' W 074°10'0 0.0
2018-Jun-02 20:30N 40°41' W 074°10'0 0.0
2018-Jun-02 19:59N 40°41' W 074°10'0 0.0
2018-Jun-02 19:30N 40°41' W 074°10'0 0.0
2018-Jun-02 19:00N 40°41' W 074°10'0 0.0
2018-Jun-02 18:30N 40°41' W 074°10'0 0.0
2018-Jun-02 17:59N 40°41' W 074°10'0 0.0
2018-Jun-02 17:30N 40°41' W 074°10'0 0.0
2018-Jun-02 17:00N 40°41' W 074°10'0 0.0
2018-Jun-02 16:30N 40°41' W 074°10'0 0.0
2018-Jun-02 16:00N 40°41' W 074°10'0 0.0
2018-Jun-02 15:30N 40°41' W 074°10'0 0.0
2018-Jun-02 15:00N 40°41' W 074°10'0 0.0
2018-Jun-02 14:26N 40°41' W 074°10'0 0.0
2018-Jun-02 13:58N 40°41' W 074°10'0 0.0
2018-Jun-02 13:28N 40°41' W 074°10'0 0.0
2018-Jun-02 13:00N 40°41' W 074°10'0 0.0
2018-Jun-02 12:29N 40°41' W 074°10'0 0.0
2018-Jun-02 12:00N 40°41' W 074°10'0 0.0
2018-Jun-02 11:28N 40°41' W 074°10'0 0.0
2018-Jun-02 10:58N 40°41' W 074°10'0 0.0
2018-Jun-02 10:22N 40°41' W 074°10'1 1.8
2018-Jun-02 09:58N 40°41' W 074°09'3 5.5
2018-Jun-02 09:30N 40°39' W 074°07'5 9.4
2018-Jun-02 09:00N 40°40' W 074°01'1 1.9
2018-Jun-02 08:31N 40°39' W 074°02'5 9.1
2018-Jun-02 07:59N 40°39' W 074°08'3 0.4
2018-Jun-01 23:50N 40°42' W 074°08'1 0.9
2018-Jun-01 22:38N 40°41' W 074°10'0 0.0
2018-Jun-01 22:27N 40°41' W 074°10'0 0.0
2018-Jun-01 21:48N 40°41' W 074°10'0 0.3
2018-Jun-01 21:30N 40°41' W 074°09'2 0.5
2018-Jun-01 18:16N 40°40' W 074°09'0 0.8
2018-Jun-01 17:58N 40°39' W 074°09'1 1.5
2018-Jun-01 17:29N 40°39' W 074°09'3 5.5
2018-Jun-01 17:00N 40°39' W 074°05'0 0.8
2018-Jun-01 16:28N 40°39' W 074°05'0 0.0
2018-Jun-01 15:59N 40°39' W 074°05'0 0.0
2018-Jun-01 15:26N 40°39' W 074°05'0 0.0
2018-Jun-01 14:56N 40°39' W 074°05'1 1.9
2018-Jun-01 14:30N 40°39' W 074°04'4 7.0
2018-Jun-01 13:59N 40°41' W 074°00'0 0.3
2018-Jun-01 13:30N 40°41' W 074°00'4 8.5
2018-Jun-01 13:00N 40°39' W 074°05'5 8.4
2018-Jun-01 12:27N 40°39' W 074°11'1 2.2
2018-Jun-01 12:00N 40°39' W 074°10'3 6.3
2018-Jun-01 11:30N 40°39' W 074°06'0 0.0
2018-Jun-01 10:43N 40°39' W 074°06'0 0.0
2018-Jun-01 10:25N 40°39' W 074°06'0 0.0
2018-Jun-01 09:58N 40°39' W 074°06'0 0.0
2018-Jun-01 09:26N 40°39' W 074°06'0 0.0
2018-Jun-01 08:59N 40°39' W 074°06'0 0.0
2018-Jun-01 08:26N 40°39' W 074°06'0 0.0
2018-Jun-01 08:00N 40°39' W 074°06'0 0.0
2018-Jun-01 07:30N 40°39' W 074°06'0 0.0
2018-Jun-01 03:09N 40°39' W 074°06'0 0.0
2018-Jun-01 02:59N 40°39' W 074°06'0 0.0
2018-Jun-01 02:30N 40°39' W 074°06'0 0.0
2018-Jun-01 01:37N 40°39' W 074°06'0 0.0
2018-Jun-01 01:13N 40°39' W 074°06'0 0.1
2018-Jun-01 01:00N 40°39' W 074°06'0 0.0
2018-Jun-01 00:28N 40°39' W 074°06'0 0.0
2018-May-31 23:56N 40°39' W 074°06'0 0.0
2018-May-31 23:29N 40°39' W 074°06'1 1.7
2018-May-31 23:00N 40°39' W 074°05'1 2.2
2018-May-31 22:30N 40°39' W 074°03'2 2.8
2018-May-31 21:58N 40°38' W 074°04'0 0.1
2018-May-31 21:28N 40°38' W 074°04'0 0.0
2018-May-31 20:58N 40°38' W 074°04'0 0.1
2018-May-31 20:29N 40°38' W 074°04'0 0.0
2018-May-31 19:59N 40°38' W 074°04'0 0.0
2018-May-31 19:29N 40°38' W 074°04'0 0.0
2018-May-31 19:00N 40°38' W 074°04'1 1.8
2018-May-31 18:30N 40°39' W 074°04'1 2.0
2018-May-31 17:59N 40°39' W 074°05'0 0.0
2018-May-31 17:29N 40°39' W 074°05'0 0.0
2018-May-31 17:00N 40°39' W 074°05'0 0.0
2018-May-31 16:30N 40°39' W 074°05'0 0.0
2018-May-31 16:00N 40°39' W 074°05'0 0.0
2018-May-31 15:31N 40°39' W 074°05'0 0.0
2018-May-31 14:58N 40°39' W 074°05'0 0.0
2018-May-31 14:28N 40°39' W 074°05'0 0.6
2018-May-31 14:00N 40°39' W 074°06'0 0.1
2018-May-31 12:13N 40°39' W 074°06'0 0.0
2018-May-31 11:07N 40°39' W 074°06'0 0.1
2018-May-31 11:00N 40°39' W 074°06'0 0.7
2018-May-31 10:30N 40°39' W 074°05'2 4.7
2018-May-31 10:00N 40°40' W 074°03'1 2.7
2018-May-31 09:30N 40°40' W 074°05'0 0.6
2018-May-31 09:00N 40°40' W 074°05'0 0.0
2018-May-31 08:27N 40°40' W 074°05'0 0.0
2018-May-31 08:00N 40°40' W 074°05'0 0.0
2018-May-31 07:25N 40°40' W 074°05'0 0.0
2018-May-31 06:58N 40°40' W 074°05'0 0.0
2018-May-31 06:28N 40°40' W 074°05'0 0.0
2018-May-31 05:59N 40°40' W 074°05'0 0.0
2018-May-31 05:29N 40°40' W 074°05'0 0.0
2018-May-31 04:59N 40°40' W 074°05'0 0.0
2018-May-31 04:28N 40°40' W 074°05'0 0.0
2018-May-31 03:59N 40°40' W 074°05'0 0.0
2018-May-31 03:29N 40°40' W 074°05'0 0.0
2018-May-31 02:59N 40°40' W 074°05'0 0.0
2018-May-31 02:29N 40°40' W 074°05'0 0.8
2018-May-31 02:00N 40°40' W 074°05'1 2.9
2018-May-31 01:30N 40°41' W 074°03'2 4.6
2018-May-31 01:00N 40°39' W 074°05'3 5.0
2018-May-31 00:28N 40°40' W 074°09'0 0.7
2018-May-31 00:00N 40°40' W 074°08'0 0.1
2018-May-30 23:30N 40°40' W 074°08'1 2.4
2018-May-30 23:00N 40°41' W 074°09'0 0.0
2018-May-30 22:28N 40°41' W 074°09'0 0.0
2018-May-30 21:51N 40°41' W 074°09'0 0.0
2018-May-30 21:30N 40°41' W 074°09'0 0.0
2018-May-30 21:00N 40°41' W 074°09'0 0.0
2018-May-30 20:30N 40°41' W 074°09'0 0.0
2018-May-30 19:58N 40°41' W 074°09'0 0.0
2018-May-30 19:30N 40°41' W 074°09'0 0.0
2018-May-30 18:58N 40°41' W 074°09'0 0.0
2018-May-30 18:18N 40°41' W 074°09'0 0.0
2018-May-30 17:59N 40°41' W 074°09'0 0.0
2018-May-30 17:30N 40°41' W 074°09'0 0.0
2018-May-30 17:00N 40°41' W 074°09'2 3.6
2018-May-30 16:30N 40°39' W 074°09'3 6.4
2018-May-30 16:00N 40°39' W 074°05'3 5.3
2018-May-30 15:30N 40°40' W 074°01'1 2.0
2018-May-30 15:00N 40°40' W 074°00'1 2.3
2018-May-30 14:30N 40°40' W 074°02'1 1.2
2018-May-30 14:01N 40°40' W 074°02'2 3.0
2018-May-30 13:30N 40°40' W 074°00'2 3.1
2018-May-30 13:01N 40°40' W 074°02'3 5.2
2018-May-30 12:30N 40°39' W 074°05'3 5.2
2018-May-30 12:00N 40°40' W 074°08'1 2.5
2018-May-30 11:27N 40°41' W 074°10'0 0.0
2018-May-30 11:00N 40°41' W 074°10'0 0.0
2018-May-30 10:29N 40°41' W 074°10'0 0.0
2018-May-30 09:04N 40°41' W 074°10'0 0.0
2018-May-30 08:49N 40°41' W 074°10'0 0.0
2018-May-30 07:15N 40°41' W 074°10'0 0.0
2018-May-30 04:53N 40°41' W 074°09'0 0.0
2018-May-30 04:30N 40°41' W 074°09'2 2.4
2018-May-30 03:50N 40°40' W 074°09'0 0.0
2018-May-30 03:30N 40°40' W 074°09'0 0.0
2018-May-30 03:00N 40°40' W 074°09'2 3.6
2018-May-30 02:30N 40°39' W 074°07'1 2.1
2018-May-30 02:01N 40°39' W 074°05'2 4.6
2018-May-30 01:29N 40°40' W 074°08'1 2.8
2018-May-30 00:59N 40°41' W 074°09'0 0.0
2018-May-30 00:30N 40°41' W 074°09'0 0.0
2018-May-29 23:58N 40°41' W 074°09'0 0.0
2018-May-29 23:30N 40°41' W 074°09'0 0.0
2018-May-29 23:00N 40°41' W 074°09'0 0.0
2018-May-29 22:30N 40°41' W 074°09'0 0.0
2018-May-29 21:59N 40°41' W 074°09'0 0.0
2018-May-29 21:28N 40°41' W 074°09'0 0.0
2018-May-29 21:00N 40°41' W 074°09'0 0.0
2018-May-29 20:29N 40°41' W 074°09'0 0.0
2018-May-29 20:00N 40°41' W 074°09'0 0.0
2018-May-29 19:30N 40°41' W 074°09'0 0.0
2018-May-29 19:00N 40°41' W 074°09'1 2.7
2018-May-29 18:30N 40°40' W 074°08'1 1.5
2018-May-29 18:00N 40°40' W 074°09'0 0.3
2018-May-29 17:30N 40°40' W 074°09'1 1.0
2018-May-29 17:00N 40°39' W 074°09'3 5.2
2018-May-29 16:28N 40°39' W 074°05'2 4.8
2018-May-29 16:00N 40°37' W 074°04'1 3.0
2018-May-29 15:30N 40°39' W 074°04'1 2.3
2018-May-29 15:00N 40°39' W 074°05'1 2.1
2018-May-29 14:30N 40°39' W 074°04'1 2.1
2018-May-29 14:00N 40°40' W 074°05'0 0.0
2018-May-29 13:27N 40°40' W 074°05'0 0.0
2018-May-29 12:58N 40°40' W 074°05'0 0.0
2018-May-29 12:28N 40°40' W 074°05'0 0.0
2018-May-29 11:58N 40°40' W 074°05'0 0.0
2018-May-29 11:28N 40°40' W 074°05'0 0.0
2018-May-29 10:59N 40°40' W 074°05'0 0.0
2018-May-29 10:29N 40°40' W 074°05'0 0.0
2018-May-29 09:59N 40°40' W 074°05'0 0.0
2018-May-29 09:30N 40°40' W 074°05'0 0.0
2018-May-29 09:00N 40°40' W 074°05'0 0.0
2018-May-29 08:30N 40°40' W 074°05'0 0.0
2018-May-29 07:58N 40°40' W 074°05'0 0.0
2018-May-29 07:28N 40°40' W 074°05'0 0.0
2018-May-29 06:58N 40°40' W 074°05'0 0.0
2018-May-29 06:29N 40°40' W 074°05'0 0.0
2018-May-29 05:56N 40°40' W 074°05'0 0.0
2018-May-29 05:29N 40°40' W 074°05'0 0.1
2018-May-29 05:00N 40°40' W 074°05'2 3.2
2018-May-29 04:30N 40°40' W 074°03'1 1.1
2018-May-29 04:00N 40°40' W 074°03'0 0.3
2018-May-29 03:30N 40°40' W 074°03'1 2.5
2018-May-29 03:00N 40°40' W 074°05'0 0.6
2018-May-29 02:28N 40°40' W 074°05'0 0.0
2018-May-29 01:56N 40°40' W 074°05'0 0.0
2018-May-29 01:29N 40°40' W 074°05'0 0.0
2018-May-29 00:59N 40°40' W 074°05'0 0.0
2018-May-29 00:27N 40°40' W 074°05'0 0.0
2018-May-28 23:57N 40°40' W 074°05'0 0.0
2018-May-28 23:30N 40°40' W 074°05'0 0.0
2018-May-28 22:58N 40°40' W 074°05'0 0.0
2018-May-28 22:28N 40°40' W 074°05'0 0.0
2018-May-28 21:58N 40°40' W 074°05'0 0.0
2018-May-28 21:29N 40°40' W 074°05'0 0.0
2018-May-28 20:59N 40°40' W 074°05'0 0.0
2018-May-28 20:29N 40°40' W 074°05'0 0.0
2018-May-28 20:00N 40°40' W 074°05'0 0.0
2018-May-28 19:30N 40°40' W 074°05'2 4.7
2018-May-28 19:01N 40°40' W 074°02'0 0.4
2018-May-28 18:30N 40°40' W 074°02'1 1.1
2018-May-28 18:01N 40°39' W 074°02'2 3.7
2018-May-28 17:30N 40°40' W 074°00'1 1.7
2018-May-28 17:00N 40°40' W 074°01'3 5.4
2018-May-28 16:29N 40°40' W 074°05'0 0.5
2018-May-28 16:00N 40°40' W 074°04'0 0.4
2018-May-28 15:28N 40°40' W 074°04'1 3.1
2018-May-28 15:00N 40°39' W 074°03'2 3.7
2018-May-28 14:27N 40°40' W 074°00'0 0.0
2018-May-28 14:00N 40°40' W 074°00'0 0.0
2018-May-28 13:28N 40°40' W 074°00'0 0.0
2018-May-28 12:58N 40°40' W 074°00'0 0.0
2018-May-28 12:28N 40°40' W 074°00'0 0.0
2018-May-28 11:59N 40°40' W 074°00'0 0.0
2018-May-28 11:29N 40°40' W 074°00'0 0.0
2018-May-28 10:59N 40°40' W 074°00'0 0.0
2018-May-28 10:30N 40°40' W 074°00'0 0.0
2018-May-28 10:00N 40°40' W 074°00'0 0.0
2018-May-28 09:30N 40°40' W 074°00'0 0.0
2018-May-28 08:58N 40°40' W 074°00'0 0.0
2018-May-28 08:28N 40°40' W 074°00'0 0.0
2018-May-28 07:58N 40°40' W 074°00'0 0.0
2018-May-28 07:26N 40°40' W 074°00'0 0.0
2018-May-28 06:59N 40°40' W 074°00'0 0.0
2018-May-28 06:29N 40°40' W 074°00'0 0.0
2018-May-28 06:00N 40°40' W 074°00'2 4.3
2018-May-28 05:30N 40°39' W 074°03'2 3.9
2018-May-28 05:00N 40°39' W 074°05'0 0.0
2018-May-28 04:30N 40°39' W 074°05'1 1.7
2018-May-28 04:00N 40°39' W 074°04'3 6.6
2018-May-28 03:30N 40°40' W 074°00'0 0.0
2018-May-28 03:00N 40°40' W 074°00'0 0.0
2018-May-28 02:28N 40°40' W 074°00'1 1.3
2018-May-28 02:00N 40°40' W 074°01'0 0.4
2018-May-28 01:28N 40°40' W 074°01'0 0.0
2018-May-28 00:59N 40°40' W 074°01'0 0.0
2018-May-28 00:29N 40°40' W 074°01'0 0.0
2018-May-27 23:59N 40°40' W 074°01'3 6.3
2018-May-27 23:28N 40°39' W 074°05'0 0.3
2018-May-27 22:58N 40°39' W 074°05'0 0.8
2018-May-27 22:30N 40°39' W 074°05'2 3.5
2018-May-27 22:01N 40°39' W 074°03'2 4.4
2018-May-27 21:28N 40°40' W 074°00'0 0.0
2018-May-27 20:59N 40°40' W 074°00'0 0.0
2018-May-27 20:29N 40°40' W 074°00'0 0.0
2018-May-27 19:56N 40°40' W 074°00'0 0.0
2018-May-27 19:18N 40°40' W 074°00'0 0.0
2018-May-27 19:00N 40°40' W 074°00'0 0.0
2018-May-27 18:30N 40°40' W 074°00'0 0.0
2018-May-27 17:58N 40°40' W 074°00'0 0.0
2018-May-27 17:28N 40°40' W 074°00'0 0.0
2018-May-27 16:58N 40°40' W 074°00'0 0.0
2018-May-27 16:20N 40°40' W 074°00'0 0.0
2018-May-27 15:59N 40°40' W 074°00'0 0.0
2018-May-27 15:29N 40°40' W 074°00'0 0.0
2018-May-27 15:00N 40°40' W 074°00'0 0.0
2018-May-27 14:30N 40°40' W 074°00'0 0.0
2018-May-27 14:00N 40°40' W 074°00'0 0.0
2018-May-27 13:28N 40°40' W 074°00'0 0.0
2018-May-27 12:58N 40°40' W 074°00'0 0.0
2018-May-27 12:28N 40°40' W 074°00'0 0.0
2018-May-27 11:59N 40°40' W 074°00'0 0.0
2018-May-27 11:29N 40°40' W 074°00'0 0.0
2018-May-27 10:59N 40°40' W 074°00'0 0.0
2018-May-27 10:29N 40°40' W 074°00'0 0.0
2018-May-27 10:00N 40°40' W 074°00'0 0.0
2018-May-27 09:30N 40°40' W 074°00'0 0.0
2018-May-27 09:00N 40°40' W 074°00'0 0.0
2018-May-27 08:28N 40°40' W 074°00'0 0.0
2018-May-27 08:00N 40°40' W 074°00'3 5.7
2018-May-27 07:30N 40°39' W 074°04'2 1.9
2018-May-27 06:41N 40°39' W 074°06'2 9.0
2018-May-27 06:30N 40°40' W 074°04'1 2.0
2018-May-27 06:00N 40°40' W 074°05'0 0.0
2018-May-27 05:30N 40°40' W 074°05'0 0.0
2018-May-27 05:00N 40°40' W 074°05'0 0.0
2018-May-27 04:30N 40°40' W 074°05'0 0.0
2018-May-27 04:00N 40°40' W 074°05'0 0.0
2018-May-27 03:30N 40°40' W 074°05'0 0.0
2018-May-27 03:00N 40°40' W 074°05'0 0.0
2018-May-27 02:30N 40°40' W 074°05'0 0.0
2018-May-27 02:00N 40°40' W 074°05'0 0.0
2018-May-27 01:30N 40°40' W 074°05'1 2.1
2018-May-27 01:00N 40°39' W 074°04'1 2.8
2018-May-27 00:29N 40°39' W 074°06'0 0.0
2018-May-27 00:00N 40°39' W 074°06'4 7.1
2018-May-26 23:30N 40°39' W 074°01'1 1.6
2018-May-26 22:59N 40°40' W 074°01'0 0.0
2018-May-26 22:29N 40°40' W 074°01'0 0.0
2018-May-26 21:56N 40°40' W 074°01'0 0.0
2018-May-26 21:30N 40°40' W 074°01'0 0.0
2018-May-26 21:00N 40°40' W 074°01'0 0.0
2018-May-26 20:30N 40°40' W 074°01'0 0.0
2018-May-26 20:00N 40°40' W 074°01'0 0.2
2018-May-26 19:30N 40°40' W 074°00'0 0.2
2018-May-26 18:59N 40°40' W 074°00'0 0.0
2018-May-26 18:29N 40°40' W 074°00'0 0.0
2018-May-26 18:00N 40°40' W 074°00'0 0.0
2018-May-26 17:30N 40°40' W 074°00'2 3.4
2018-May-26 17:01N 40°39' W 074°02'2 3.5
2018-May-26 16:26N 40°40' W 074°04'0 0.0
2018-May-26 15:57N 40°40' W 074°04'0 0.0
2018-May-26 15:27N 40°40' W 074°04'0 0.0
2018-May-26 15:00N 40°40' W 074°04'0 0.0
2018-May-26 14:28N 40°40' W 074°04'0 0.0
2018-May-26 13:58N 40°40' W 074°04'0 0.0
2018-May-26 13:28N 40°40' W 074°04'0 0.0
2018-May-26 12:59N 40°40' W 074°04'0 0.0
2018-May-26 12:29N 40°40' W 074°04'0 0.0
2018-May-26 11:59N 40°40' W 074°04'0 0.2
2018-May-26 11:30N 40°40' W 074°04'0 0.0
2018-May-26 10:58N 40°40' W 074°04'0 0.0
2018-May-26 10:28N 40°40' W 074°04'0 0.0
2018-May-26 09:56N 40°40' W 074°04'0 0.0
2018-May-26 09:29N 40°40' W 074°04'0 0.0
2018-May-26 08:59N 40°40' W 074°04'0 0.0
2018-May-26 08:18N 40°40' W 074°04'0 0.0
2018-May-26 08:00N 40°40' W 074°04'0 0.0
2018-May-26 07:30N 40°40' W 074°04'0 0.1
2018-May-26 07:00N 40°40' W 074°04'2 4.4
2018-May-26 06:30N 40°39' W 074°07'0 0.1
2018-May-26 05:30N 40°39' W 074°07'1 2.4
2018-May-26 05:00N 40°39' W 074°05'4 7.2
2018-May-26 04:30N 40°40' W 074°01'0 0.1
2018-May-26 04:00N 40°40' W 074°01'0 0.0
2018-May-26 03:30N 40°40' W 074°01'0 0.0
2018-May-26 02:58N 40°40' W 074°01'0 0.0
2018-May-26 02:25N 40°40' W 074°01'0 0.0
2018-May-26 01:58N 40°40' W 074°01'0 0.0
2018-May-26 01:29N 40°40' W 074°01'0 0.0
2018-May-26 00:59N 40°40' W 074°01'0 0.0
2018-May-26 00:30N 40°40' W 074°01'3 5.4
2018-May-26 00:00N 40°39' W 074°04'4 7.3
2018-May-25 23:28N 40°39' W 074°09'2 3.0
2018-May-25 22:51N 40°41' W 074°09'0 0.1
2018-May-25 22:30N 40°41' W 074°09'0 0.2
2018-May-25 21:02N 40°41' W 074°09'0 0.4
2018-May-25 20:56N 40°41' W 074°09'3 6.6
2018-May-25 20:31N 40°39' W 074°08'4 7.6
2018-May-25 20:01N 40°39' W 074°03'3 5.2
2018-May-25 19:28N 40°40' W 074°00'0 0.0
2018-May-25 18:59N 40°40' W 074°00'0 0.0
2018-May-25 18:29N 40°40' W 074°00'0 0.0
2018-May-25 17:59N 40°40' W 074°00'0 0.0
2018-May-25 17:30N 40°40' W 074°00'0 0.0
2018-May-25 17:00N 40°40' W 074°00'0 0.8
2018-May-25 16:30N 40°40' W 074°01'3 6.9
2018-May-25 16:00N 40°39' W 074°05'0 0.1
2018-May-25 15:30N 40°39' W 074°05'3 6.0
2018-May-25 15:00N 40°38' W 074°09'3 1.3
2018-May-25 12:18N 40°42' W 074°09'1 2.2
2018-May-25 12:00N 40°41' W 074°08'1 2.8
2018-May-25 11:30N 40°40' W 074°08'0 0.0
2018-May-25 11:00N 40°40' W 074°08'2 3.2
2018-May-25 10:28N 40°39' W 074°07'0 1.0
2018-May-25 10:00N 40°39' W 074°07'2 3.6
2018-May-25 09:28N 40°40' W 074°05'0 0.0
2018-May-25 08:59N 40°40' W 074°05'0 0.0
2018-May-25 08:29N 40°40' W 074°05'0 0.0
2018-May-25 07:59N 40°40' W 074°05'0 0.0
2018-May-25 07:29N 40°40' W 074°05'0 0.0
2018-May-25 07:00N 40°40' W 074°05'0 0.0
2018-May-25 06:27N 40°40' W 074°05'0 0.0
2018-May-25 06:00N 40°40' W 074°05'0 0.0
2018-May-25 05:28N 40°40' W 074°05'0 0.0
2018-May-25 04:58N 40°40' W 074°05'0 0.0
2018-May-25 04:28N 40°40' W 074°05'0 0.0
2018-May-25 03:59N 40°40' W 074°05'1 2.0
2018-May-25 03:30N 40°40' W 074°04'2 4.2
2018-May-25 02:59N 40°39' W 074°07'0 0.3
2018-May-25 02:30N 40°39' W 074°07'1 2.2
2018-May-25 02:00N 40°39' W 074°05'1 1.0
2018-May-25 01:16N 40°39' W 074°06'0 0.0
2018-May-25 01:00N 40°39' W 074°06'0 0.8
2018-May-25 00:30N 40°39' W 074°05'  

Dump ship's entire track history